sensor_id;sensor_type;location;lat;lon;timestamp;temperature;humidity
21184;DHT22;18176;49.502;11.754;2023-04-24T00:03:24;9.40;99.90
21184;DHT22;18176;49.502;11.754;2023-04-24T00:07:28;9.40;99.90
21184;DHT22;18176;49.502;11.754;2023-04-24T00:11:30;9.40;99.90
21184;DHT22;18176;49.502;11.754;2023-04-24T00:15:33;9.40;99.90
21184;DHT22;18176;49.502;11.754;2023-04-24T00:19:33;9.40;99.90
21184;DHT22;18176;49.502;11.754;2023-04-24T00:23:37;9.40;99.90
21184;DHT22;18176;49.502;11.754;2023-04-24T00:27:37;9.40;99.90
21184;DHT22;18176;49.502;11.754;2023-04-24T00:31:38;9.40;99.90
21184;DHT22;18176;49.502;11.754;2023-04-24T00:35:39;9.40;99.90
21184;DHT22;18176;49.502;11.754;2023-04-24T00:39:44;9.50;99.90
21184;DHT22;18176;49.502;11.754;2023-04-24T00:43:44;9.50;99.90
21184;DHT22;18176;49.502;11.754;2023-04-24T00:47:45;9.50;99.90
21184;DHT22;18176;49.502;11.754;2023-04-24T00:51:50;9.50;99.90
21184;DHT22;18176;49.502;11.754;2023-04-24T00:55:53;9.50;99.90
21184;DHT22;18176;49.502;11.754;2023-04-24T00:59:54;9.50;99.90
21184;DHT22;18176;49.502;11.754;2023-04-24T01:03:55;9.50;99.90
21184;DHT22;18176;49.502;11.754;2023-04-24T01:07:58;9.40;99.90
21184;DHT22;18176;49.502;11.754;2023-04-24T01:12:02;9.40;99.90
21184;DHT22;18176;49.502;11.754;2023-04-24T01:16:02;9.40;99.90
21184;DHT22;18176;49.502;11.754;2023-04-24T01:20:04;9.30;99.90
21184;DHT22;18176;49.502;11.754;2023-04-24T01:24:08;9.30;99.90
21184;DHT22;18176;49.502;11.754;2023-04-24T01:28:08;9.20;99.90
21184;DHT22;18176;49.502;11.754;2023-04-24T01:32:11;9.10;99.90
21184;DHT22;18176;49.502;11.754;2023-04-24T01:36:12;9.10;99.90
21184;DHT22;18176;49.502;11.754;2023-04-24T01:40:16;9.10;99.90
21184;DHT22;18176;49.502;11.754;2023-04-24T01:44:16;9.10;99.90
21184;DHT22;18176;49.502;11.754;2023-04-24T01:48:17;9.10;99.90
21184;DHT22;18176;49.502;11.754;2023-04-24T01:52:17;9.00;99.90
21184;DHT22;18176;49.502;11.754;2023-04-24T01:56:21;9.00;99.90
21184;DHT22;18176;49.502;11.754;2023-04-24T02:00:22;9.00;99.90
21184;DHT22;18176;49.502;11.754;2023-04-24T02:04:23;8.90;99.90
21184;DHT22;18176;49.502;11.754;2023-04-24T02:08:24;8.90;99.90
21184;DHT22;18176;49.502;11.754;2023-04-24T02:12:27;8.90;99.90
21184;DHT22;18176;49.502;11.754;2023-04-24T02:16:28;8.80;99.90
21184;DHT22;18176;49.502;11.754;2023-04-24T02:20:30;8.80;99.90
21184;DHT22;18176;49.502;11.754;2023-04-24T02:24:31;8.80;99.90
21184;DHT22;18176;49.502;11.754;2023-04-24T02:28:34;8.70;99.90
21184;DHT22;18176;49.502;11.754;2023-04-24T02:32:34;8.70;99.90
21184;DHT22;18176;49.502;11.754;2023-04-24T02:36:36;8.70;99.90
21184;DHT22;18176;49.502;11.754;2023-04-24T02:40:37;8.80;99.90
21184;DHT22;18176;49.502;11.754;2023-04-24T02:44:42;8.80;99.90
21184;DHT22;18176;49.502;11.754;2023-04-24T02:48:42;8.90;99.90
21184;DHT22;18176;49.502;11.754;2023-04-24T02:52:42;8.90;99.90
21184;DHT22;18176;49.502;11.754;2023-04-24T02:56:43;8.90;99.90
21184;DHT22;18176;49.502;11.754;2023-04-24T03:00:46;8.90;99.90
21184;DHT22;18176;49.502;11.754;2023-04-24T03:04:46;8.90;99.90
21184;DHT22;18176;49.502;11.754;2023-04-24T03:08:47;8.90;99.90
21184;DHT22;18176;49.502;11.754;2023-04-24T03:12:48;8.90;99.90
21184;DHT22;18176;49.502;11.754;2023-04-24T03:16:50;8.90;99.90
21184;DHT22;18176;49.502;11.754;2023-04-24T03:20:51;8.90;99.90
21184;DHT22;18176;49.502;11.754;2023-04-24T03:24:51;8.90;99.90
21184;DHT22;18176;49.502;11.754;2023-04-24T03:28:52;8.90;99.90
21184;DHT22;18176;49.502;11.754;2023-04-24T03:32:56;8.80;99.90
21184;DHT22;18176;49.502;11.754;2023-04-24T03:37:00;8.80;99.90
21184;DHT22;18176;49.502;11.754;2023-04-24T03:41:03;8.80;99.90
21184;DHT22;18176;49.502;11.754;2023-04-24T03:45:14;8.80;99.90
21184;DHT22;18176;49.502;11.754;2023-04-24T03:49:21;8.80;99.90
21184;DHT22;18176;49.502;11.754;2023-04-24T03:53:22;8.70;99.90
21184;DHT22;18176;49.502;11.754;2023-04-24T03:57:24;8.70;99.90
21184;DHT22;18176;49.502;11.754;2023-04-24T04:01:47;8.70;99.90
21184;DHT22;18176;49.502;11.754;2023-04-24T04:05:51;8.70;99.90
21184;DHT22;18176;49.502;11.754;2023-04-24T04:09:52;8.70;99.90
21184;DHT22;18176;49.502;11.754;2023-04-24T04:13:53;8.60;99.90
21184;DHT22;18176;49.502;11.754;2023-04-24T04:17:54;8.60;99.90
21184;DHT22;18176;49.502;11.754;2023-04-24T04:21:57;8.60;99.90
21184;DHT22;18176;49.502;11.754;2023-04-24T04:26:09;8.60;99.90
21184;DHT22;18176;49.502;11.754;2023-04-24T04:30:31;8.60;99.90
21184;DHT22;18176;49.502;11.754;2023-04-24T04:34:33;8.60;99.90
21184;DHT22;18176;49.502;11.754;2023-04-24T04:38:38;8.70;99.90
21184;DHT22;18176;49.502;11.754;2023-04-24T04:43:12;8.70;99.90
21184;DHT22;18176;49.502;11.754;2023-04-24T04:47:21;8.70;99.90
21184;DHT22;18176;49.502;11.754;2023-04-24T04:51:25;8.70;99.90
21184;DHT22;18176;49.502;11.754;2023-04-24T04:55:28;8.70;99.90
21184;DHT22;18176;49.502;11.754;2023-04-24T04:59:40;8.70;99.90
21184;DHT22;18176;49.502;11.754;2023-04-24T05:03:49;8.70;99.90
21184;DHT22;18176;49.502;11.754;2023-04-24T05:07:50;8.80;99.90
21184;DHT22;18176;49.502;11.754;2023-04-24T05:11:53;8.80;99.90
21184;DHT22;18176;49.502;11.754;2023-04-24T05:15:56;8.80;99.90
21184;DHT22;18176;49.502;11.754;2023-04-24T05:19:59;8.80;99.90
21184;DHT22;18176;49.502;11.754;2023-04-24T05:24:03;8.80;99.90
21184;DHT22;18176;49.502;11.754;2023-04-24T05:28:17;8.90;99.90
21184;DHT22;18176;49.502;11.754;2023-04-24T05:32:30;9.00;99.90
21184;DHT22;18176;49.502;11.754;2023-04-24T05:36:31;9.10;99.90
21184;DHT22;18176;49.502;11.754;2023-04-24T05:40:31;9.30;99.90
21184;DHT22;18176;49.502;11.754;2023-04-24T05:44:34;9.40;99.90
21184;DHT22;18176;49.502;11.754;2023-04-24T05:48:34;9.50;99.90
21184;DHT22;18176;49.502;11.754;2023-04-24T05:52:34;9.70;99.90
21184;DHT22;18176;49.502;11.754;2023-04-24T05:56:47;9.80;99.90
21184;DHT22;18176;49.502;11.754;2023-04-24T06:01:01;9.90;99.90
21184;DHT22;18176;49.502;11.754;2023-04-24T06:05:03;10.20;99.90
21184;DHT22;18176;49.502;11.754;2023-04-24T06:09:05;10.50;99.90
21184;DHT22;18176;49.502;11.754;2023-04-24T06:13:05;10.80;99.90
21184;DHT22;18176;49.502;11.754;2023-04-24T06:17:13;11.00;99.90
21184;DHT22;18176;49.502;11.754;2023-04-24T06:21:16;11.10;99.90
21184;DHT22;18176;49.502;11.754;2023-04-24T06:25:16;11.20;99.90
21184;DHT22;18176;49.502;11.754;2023-04-24T06:29:17;11.10;99.90
21184;DHT22;18176;49.502;11.754;2023-04-24T06:33:20;11.20;99.90
21184;DHT22;18176;49.502;11.754;2023-04-24T06:37:20;11.30;99.90
21184;DHT22;18176;49.502;11.754;2023-04-24T06:41:20;11.40;99.90
21184;DHT22;18176;49.502;11.754;2023-04-24T06:45:21;11.50;99.90
21184;DHT22;18176;49.502;11.754;2023-04-24T06:49:24;11.40;99.90
21184;DHT22;18176;49.502;11.754;2023-04-24T06:53:24;11.50;99.90
21184;DHT22;18176;49.502;11.754;2023-04-24T06:57:24;11.50;99.90
21184;DHT22;18176;49.502;11.754;2023-04-24T07:01:25;11.50;99.90
21184;DHT22;18176;49.502;11.754;2023-04-24T07:05:28;11.30;99.90
21184;DHT22;18176;49.502;11.754;2023-04-24T07:09:28;11.40;99.90
21184;DHT22;18176;49.502;11.754;2023-04-24T07:13:28;11.50;99.90
21184;DHT22;18176;49.502;11.754;2023-04-24T07:17:29;11.60;99.90
21184;DHT22;18176;49.502;11.754;2023-04-24T07:21:32;11.70;99.90
21184;DHT22;18176;49.502;11.754;2023-04-24T07:25:32;11.70;99.90
21184;DHT22;18176;49.502;11.754;2023-04-24T07:29:32;11.80;99.90
21184;DHT22;18176;49.502;11.754;2023-04-24T07:33:33;11.80;99.90
21184;DHT22;18176;49.502;11.754;2023-04-24T07:37:35;11.70;99.90
21184;DHT22;18176;49.502;11.754;2023-04-24T07:41:36;11.50;99.90
21184;DHT22;18176;49.502;11.754;2023-04-24T07:45:36;11.20;99.90
21184;DHT22;18176;49.502;11.754;2023-04-24T07:49:36;11.00;99.90
21184;DHT22;18176;49.502;11.754;2023-04-24T07:53:40;11.00;99.90
21184;DHT22;18176;49.502;11.754;2023-04-24T07:57:40;11.10;99.90
21184;DHT22;18176;49.502;11.754;2023-04-24T08:01:41;11.40;99.90
21184;DHT22;18176;49.502;11.754;2023-04-24T08:05:41;11.60;99.90
21184;DHT22;18176;49.502;11.754;2023-04-24T08:09:44;12.00;99.90
21184;DHT22;18176;49.502;11.754;2023-04-24T08:13:44;12.50;99.90
21184;DHT22;18176;49.502;11.754;2023-04-24T08:17:45;13.10;99.90
21184;DHT22;18176;49.502;11.754;2023-04-24T08:21:45;12.70;99.90
21184;DHT22;18176;49.502;11.754;2023-04-24T08:25:48;12.70;99.90
21184;DHT22;18176;49.502;11.754;2023-04-24T08:29:49;13.00;99.90
21184;DHT22;18176;49.502;11.754;2023-04-24T08:33:50;13.50;99.90
21184;DHT22;18176;49.502;11.754;2023-04-24T08:37:50;13.80;99.90
21184;DHT22;18176;49.502;11.754;2023-04-24T08:41:55;14.10;99.90
21184;DHT22;18176;49.502;11.754;2023-04-24T08:46:03;13.50;99.90
21184;DHT22;18176;49.502;11.754;2023-04-24T08:50:09;13.20;99.90
21184;DHT22;18176;49.502;11.754;2023-04-24T08:54:11;13.20;99.90
21184;DHT22;18176;49.502;11.754;2023-04-24T08:58:16;13.00;99.90
21184;DHT22;18176;49.502;11.754;2023-04-24T09:02:16;13.20;99.90
21184;DHT22;18176;49.502;11.754;2023-04-24T09:06:19;13.00;99.90
21184;DHT22;18176;49.502;11.754;2023-04-24T09:10:24;12.90;99.90
21184;DHT22;18176;49.502;11.754;2023-04-24T09:14:30;12.80;99.90
21184;DHT22;18176;49.502;11.754;2023-04-24T09:18:33;13.50;99.90
21184;DHT22;18176;49.502;11.754;2023-04-24T09:22:33;13.70;99.90
21184;DHT22;18176;49.502;11.754;2023-04-24T09:26:35;13.50;99.90
21184;DHT22;18176;49.502;11.754;2023-04-24T09:30:39;13.90;99.90
21184;DHT22;18176;49.502;11.754;2023-04-24T09:34:39;13.80;99.90
21184;DHT22;18176;49.502;11.754;2023-04-24T09:38:41;13.30;99.90
21184;DHT22;18176;49.502;11.754;2023-04-24T09:42:46;13.40;99.90
21184;DHT22;18176;49.502;11.754;2023-04-24T09:46:57;13.00;99.90
21184;DHT22;18176;49.502;11.754;2023-04-24T09:50:59;13.00;99.90
21184;DHT22;18176;49.502;11.754;2023-04-24T09:55:00;13.50;99.90
21184;DHT22;18176;49.502;11.754;2023-04-24T09:59:07;13.40;99.90
21184;DHT22;18176;49.502;11.754;2023-04-24T10:03:10;13.50;99.90
21184;DHT22;18176;49.502;11.754;2023-04-24T10:07:10;13.80;99.90
21184;DHT22;18176;49.502;11.754;2023-04-24T10:11:11;13.80;99.90
21184;DHT22;18176;49.502;11.754;2023-04-24T10:15:12;14.00;99.90
21184;DHT22;18176;49.502;11.754;2023-04-24T10:19:20;13.90;99.90
21184;DHT22;18176;49.502;11.754;2023-04-24T10:23:20;13.50;99.90
21184;DHT22;18176;49.502;11.754;2023-04-24T10:27:23;13.40;99.90
21184;DHT22;18176;49.502;11.754;2023-04-24T10:31:27;13.10;99.90
21184;DHT22;18176;49.502;11.754;2023-04-24T10:35:37;13.00;99.90
21184;DHT22;18176;49.502;11.754;2023-04-24T10:39:41;13.40;99.90
21184;DHT22;18176;49.502;11.754;2023-04-24T10:43:42;14.20;99.90
21184;DHT22;18176;49.502;11.754;2023-04-24T10:47:42;14.50;99.90
21184;DHT22;18176;49.502;11.754;2023-04-24T10:51:49;14.40;99.90
21184;DHT22;18176;49.502;11.754;2023-04-24T10:55:51;13.90;99.90
21184;DHT22;18176;49.502;11.754;2023-04-24T11:00:16;13.40;99.90
21184;DHT22;18176;49.502;11.754;2023-04-24T11:04:29;13.00;99.90
21184;DHT22;18176;49.502;11.754;2023-04-24T11:08:38;13.10;99.90
21184;DHT22;18176;49.502;11.754;2023-04-24T11:12:42;13.30;99.90
21184;DHT22;18176;49.502;11.754;2023-04-24T11:16:44;14.70;99.90
21184;DHT22;18176;49.502;11.754;2023-04-24T11:20:46;15.40;99.90
21184;DHT22;18176;49.502;11.754;2023-04-24T11:24:53;16.10;99.90
21184;DHT22;18176;49.502;11.754;2023-04-24T11:29:06;15.50;99.90
21184;DHT22;18176;49.502;11.754;2023-04-24T11:33:07;15.20;99.90
21184;DHT22;18176;49.502;11.754;2023-04-24T11:37:08;16.00;99.90
21184;DHT22;18176;49.502;11.754;2023-04-24T11:41:11;17.10;98.40
21184;DHT22;18176;49.502;11.754;2023-04-24T11:45:13;16.10;99.90
21184;DHT22;18176;49.502;11.754;2023-04-24T11:49:16;14.90;99.90
21184;DHT22;18176;49.502;11.754;2023-04-24T11:53:18;14.30;99.90
21184;DHT22;18176;49.502;11.754;2023-04-24T11:57:23;13.90;99.90
21184;DHT22;18176;49.502;11.754;2023-04-24T12:01:35;13.30;99.90
21184;DHT22;18176;49.502;11.754;2023-04-24T12:05:42;13.00;99.90
21184;DHT22;18176;49.502;11.754;2023-04-24T12:09:44;13.30;99.90
21184;DHT22;18176;49.502;11.754;2023-04-24T12:13:51;13.20;99.90
21184;DHT22;18176;49.502;11.754;2023-04-24T12:17:52;13.70;99.90
21184;DHT22;18176;49.502;11.754;2023-04-24T12:22:00;13.80;99.90
21184;DHT22;18176;49.502;11.754;2023-04-24T12:26:04;14.00;99.90
21184;DHT22;18176;49.502;11.754;2023-04-24T12:30:11;15.50;99.90
21184;DHT22;18176;49.502;11.754;2023-04-24T12:34:18;16.60;99.90
21184;DHT22;18176;49.502;11.754;2023-04-24T12:38:23;16.50;99.90
21184;DHT22;18176;49.502;11.754;2023-04-24T12:42:26;16.50;99.70
21184;DHT22;18176;49.502;11.754;2023-04-24T12:46:29;15.90;99.90
21184;DHT22;18176;49.502;11.754;2023-04-24T12:50:29;14.60;99.90
21184;DHT22;18176;49.502;11.754;2023-04-24T12:54:32;13.60;99.90
21184;DHT22;18176;49.502;11.754;2023-04-24T12:58:33;12.60;99.90
21184;DHT22;18176;49.502;11.754;2023-04-24T13:02:36;11.90;99.90
21184;DHT22;18176;49.502;11.754;2023-04-24T13:06:36;11.70;99.90
21184;DHT22;18176;49.502;11.754;2023-04-24T13:10:37;12.00;99.90
21184;DHT22;18176;49.502;11.754;2023-04-24T13:14:37;12.40;99.90
21184;DHT22;18176;49.502;11.754;2023-04-24T13:18:40;13.00;99.90
21184;DHT22;18176;49.502;11.754;2023-04-24T13:22:40;13.50;99.90
21184;DHT22;18176;49.502;11.754;2023-04-24T13:26:41;14.40;99.90
21184;DHT22;18176;49.502;11.754;2023-04-24T13:30:41;14.20;99.90
21184;DHT22;18176;49.502;11.754;2023-04-24T13:34:44;13.90;99.90
21184;DHT22;18176;49.502;11.754;2023-04-24T13:38:44;13.90;99.90
21184;DHT22;18176;49.502;11.754;2023-04-24T13:42:45;13.50;99.90
21184;DHT22;18176;49.502;11.754;2023-04-24T13:46:46;13.30;99.90
21184;DHT22;18176;49.502;11.754;2023-04-24T13:50:51;13.40;99.90
21184;DHT22;18176;49.502;11.754;2023-04-24T13:54:51;12.90;99.90
21184;DHT22;18176;49.502;11.754;2023-04-24T13:58:52;12.50;99.90
21184;DHT22;18176;49.502;11.754;2023-04-24T14:02:53;12.40;99.90
21184;DHT22;18176;49.502;11.754;2023-04-24T14:06:56;12.90;99.90
21184;DHT22;18176;49.502;11.754;2023-04-24T14:10:57;13.40;99.90
21184;DHT22;18176;49.502;11.754;2023-04-24T14:15:00;13.50;99.90
21184;DHT22;18176;49.502;11.754;2023-04-24T14:19:01;13.30;99.90
21184;DHT22;18176;49.502;11.754;2023-04-24T14:23:05;12.90;99.90
21184;DHT22;18176;49.502;11.754;2023-04-24T14:27:05;12.60;99.90
21184;DHT22;18176;49.502;11.754;2023-04-24T14:31:05;12.40;99.90
21184;DHT22;18176;49.502;11.754;2023-04-24T14:35:07;12.40;99.90
21184;DHT22;18176;49.502;11.754;2023-04-24T14:39:10;12.30;99.90
21184;DHT22;18176;49.502;11.754;2023-04-24T14:43:11;12.80;99.90
21184;DHT22;18176;49.502;11.754;2023-04-24T14:47:11;13.10;99.90
21184;DHT22;18176;49.502;11.754;2023-04-24T14:51:11;13.60;99.90
21184;DHT22;18176;49.502;11.754;2023-04-24T14:55:14;14.60;99.90
21184;DHT22;18176;49.502;11.754;2023-04-24T14:59:14;15.00;99.90
21184;DHT22;18176;49.502;11.754;2023-04-24T15:03:15;14.80;99.90
21184;DHT22;18176;49.502;11.754;2023-04-24T15:07:15;14.40;99.90
21184;DHT22;18176;49.502;11.754;2023-04-24T15:11:18;14.60;99.90
21184;DHT22;18176;49.502;11.754;2023-04-24T15:15:18;14.30;99.90
21184;DHT22;18176;49.502;11.754;2023-04-24T15:19:19;14.20;99.90
21184;DHT22;18176;49.502;11.754;2023-04-24T15:23:19;14.70;99.90
21184;DHT22;18176;49.502;11.754;2023-04-24T15:27:21;15.20;99.90
21184;DHT22;18176;49.502;11.754;2023-04-24T15:31:22;15.20;99.90
21184;DHT22;18176;49.502;11.754;2023-04-24T15:35:22;14.90;99.90
21184;DHT22;18176;49.502;11.754;2023-04-24T15:39:23;15.30;99.90
21184;DHT22;18176;49.502;11.754;2023-04-24T15:43:26;14.80;99.90
21184;DHT22;18176;49.502;11.754;2023-04-24T15:47:28;14.10;99.90
21184;DHT22;18176;49.502;11.754;2023-04-24T15:51:28;13.60;99.90
21184;DHT22;18176;49.502;11.754;2023-04-24T15:55:28;12.80;99.90
21184;DHT22;18176;49.502;11.754;2023-04-24T15:59:32;12.70;99.90
21184;DHT22;18176;49.502;11.754;2023-04-24T16:03:33;12.50;99.90
21184;DHT22;18176;49.502;11.754;2023-04-24T16:07:34;12.90;99.90
21184;DHT22;18176;49.502;11.754;2023-04-24T16:11:36;13.30;99.90
21184;DHT22;18176;49.502;11.754;2023-04-24T16:15:39;14.30;99.90
21184;DHT22;18176;49.502;11.754;2023-04-24T16:19:39;14.90;99.90
21184;DHT22;18176;49.502;11.754;2023-04-24T16:23:40;14.70;99.90
21184;DHT22;18176;49.502;11.754;2023-04-24T16:27:41;14.20;99.90
21184;DHT22;18176;49.502;11.754;2023-04-24T16:31:48;13.90;99.90
21184;DHT22;18176;49.502;11.754;2023-04-24T16:35:49;13.80;99.90
21184;DHT22;18176;49.502;11.754;2023-04-24T16:39:49;12.90;99.90
21184;DHT22;18176;49.502;11.754;2023-04-24T16:43:51;12.20;99.90
21184;DHT22;18176;49.502;11.754;2023-04-24T16:47:54;11.90;99.90
21184;DHT22;18176;49.502;11.754;2023-04-24T16:51:54;11.80;99.90
21184;DHT22;18176;49.502;11.754;2023-04-24T16:55:54;10.80;99.90
21184;DHT22;18176;49.502;11.754;2023-04-24T16:59:55;9.90;99.90
21184;DHT22;18176;49.502;11.754;2023-04-24T17:03:57;9.50;99.90
21184;DHT22;18176;49.502;11.754;2023-04-24T17:07:58;9.30;99.90
21184;DHT22;18176;49.502;11.754;2023-04-24T17:11:58;9.30;99.90
21184;DHT22;18176;49.502;11.754;2023-04-24T17:15:58;9.40;99.90
21184;DHT22;18176;49.502;11.754;2023-04-24T17:20:02;9.40;99.90
21184;DHT22;18176;49.502;11.754;2023-04-24T17:24:17;9.50;99.90
21184;DHT22;18176;49.502;11.754;2023-04-24T17:28:24;9.40;99.90
21184;DHT22;18176;49.502;11.754;2023-04-24T17:32:26;9.40;99.90
21184;DHT22;18176;49.502;11.754;2023-04-24T17:36:29;9.70;99.90
21184;DHT22;18176;49.502;11.754;2023-04-24T17:40:30;9.90;99.90
21184;DHT22;18176;49.502;11.754;2023-04-24T17:44:30;9.90;99.90
21184;DHT22;18176;49.502;11.754;2023-04-24T17:48:32;9.70;99.90
21184;DHT22;18176;49.502;11.754;2023-04-24T17:52:34;9.60;99.90
21184;DHT22;18176;49.502;11.754;2023-04-24T17:56:35;9.50;99.90
21184;DHT22;18176;49.502;11.754;2023-04-24T18:00:36;9.40;99.90
21184;DHT22;18176;49.502;11.754;2023-04-24T18:04:36;9.30;99.90
21184;DHT22;18176;49.502;11.754;2023-04-24T18:08:42;9.20;99.90
21184;DHT22;18176;49.502;11.754;2023-04-24T18:12:42;9.20;99.90
21184;DHT22;18176;49.502;11.754;2023-04-24T18:16:43;9.20;99.90
21184;DHT22;18176;49.502;11.754;2023-04-24T18:20:43;9.20;99.90
21184;DHT22;18176;49.502;11.754;2023-04-24T18:24:47;9.10;99.90
21184;DHT22;18176;49.502;11.754;2023-04-24T18:28:47;9.20;99.90
21184;DHT22;18176;49.502;11.754;2023-04-24T18:32:47;9.20;99.90
21184;DHT22;18176;49.502;11.754;2023-04-24T18:36:49;9.20;99.90
21184;DHT22;18176;49.502;11.754;2023-04-24T18:40:52;9.10;99.90
21184;DHT22;18176;49.502;11.754;2023-04-24T18:44:53;9.10;99.90
21184;DHT22;18176;49.502;11.754;2023-04-24T18:48:57;9.10;99.90
21184;DHT22;18176;49.502;11.754;2023-04-24T18:52:57;9.00;99.90
21184;DHT22;18176;49.502;11.754;2023-04-24T18:57:00;9.00;99.90
21184;DHT22;18176;49.502;11.754;2023-04-24T19:01:00;9.00;99.90
21184;DHT22;18176;49.502;11.754;2023-04-24T19:05:04;9.00;99.90
21184;DHT22;18176;49.502;11.754;2023-04-24T19:09:06;9.00;99.90
21184;DHT22;18176;49.502;11.754;2023-04-24T19:13:09;8.80;99.90
21184;DHT22;18176;49.502;11.754;2023-04-24T19:17:10;8.80;99.90
21184;DHT22;18176;49.502;11.754;2023-04-24T19:21:10;8.70;99.90
21184;DHT22;18176;49.502;11.754;2023-04-24T19:25:10;8.60;99.90
21184;DHT22;18176;49.502;11.754;2023-04-24T19:29:14;8.50;99.90
21184;DHT22;18176;49.502;11.754;2023-04-24T19:33:14;8.40;99.90
21184;DHT22;18176;49.502;11.754;2023-04-24T19:37:14;8.40;99.90
21184;DHT22;18176;49.502;11.754;2023-04-24T19:41:15;8.40;99.90
21184;DHT22;18176;49.502;11.754;2023-04-24T19:45:18;8.40;99.90
21184;DHT22;18176;49.502;11.754;2023-04-24T19:49:18;8.40;99.90
21184;DHT22;18176;49.502;11.754;2023-04-24T19:53:18;8.30;99.90
21184;DHT22;18176;49.502;11.754;2023-04-24T19:57:19;8.30;99.90
21184;DHT22;18176;49.502;11.754;2023-04-24T20:01:21;8.20;99.90
21184;DHT22;18176;49.502;11.754;2023-04-24T20:05:22;8.00;99.90
21184;DHT22;18176;49.502;11.754;2023-04-24T20:09:22;7.90;99.90
21184;DHT22;18176;49.502;11.754;2023-04-24T20:13:23;7.80;99.90
21184;DHT22;18176;49.502;11.754;2023-04-24T20:17:26;7.80;99.90
21184;DHT22;18176;49.502;11.754;2023-04-24T20:21:27;7.80;99.90
21184;DHT22;18176;49.502;11.754;2023-04-24T20:25:28;7.70;99.90
21184;DHT22;18176;49.502;11.754;2023-04-24T20:29:28;7.80;99.90
21184;DHT22;18176;49.502;11.754;2023-04-24T20:33:31;7.90;99.90
21184;DHT22;18176;49.502;11.754;2023-04-24T20:37:34;8.00;99.90
21184;DHT22;18176;49.502;11.754;2023-04-24T20:41:34;7.90;99.90
21184;DHT22;18176;49.502;11.754;2023-04-24T20:45:34;7.90;99.90
21184;DHT22;18176;49.502;11.754;2023-04-24T20:49:37;7.80;99.90
21184;DHT22;18176;49.502;11.754;2023-04-24T20:53:37;7.80;99.90
21184;DHT22;18176;49.502;11.754;2023-04-24T20:57:38;7.80;99.90
21184;DHT22;18176;49.502;11.754;2023-04-24T21:01:38;7.70;99.90
21184;DHT22;18176;49.502;11.754;2023-04-24T21:05:42;7.70;99.90
21184;DHT22;18176;49.502;11.754;2023-04-24T21:09:43;7.70;99.90
21184;DHT22;18176;49.502;11.754;2023-04-24T21:13:43;7.70;99.90
21184;DHT22;18176;49.502;11.754;2023-04-24T21:17:45;7.60;99.90
21184;DHT22;18176;49.502;11.754;2023-04-24T21:21:48;7.60;99.90
21184;DHT22;18176;49.502;11.754;2023-04-24T21:25:49;7.40;99.90
21184;DHT22;18176;49.502;11.754;2023-04-24T21:29:50;7.30;99.90
21184;DHT22;18176;49.502;11.754;2023-04-24T21:33:50;7.20;99.90
21184;DHT22;18176;49.502;11.754;2023-04-24T21:37:53;7.10;99.90
21184;DHT22;18176;49.502;11.754;2023-04-24T21:41:53;7.00;99.90
21184;DHT22;18176;49.502;11.754;2023-04-24T21:45:54;7.10;99.90
21184;DHT22;18176;49.502;11.754;2023-04-24T21:49:54;7.10;99.90
21184;DHT22;18176;49.502;11.754;2023-04-24T21:53:57;7.10;99.90
21184;DHT22;18176;49.502;11.754;2023-04-24T21:57:57;7.00;99.90
21184;DHT22;18176;49.502;11.754;2023-04-24T22:01:57;6.90;99.90
21184;DHT22;18176;49.502;11.754;2023-04-24T22:05:58;6.80;99.90
21184;DHT22;18176;49.502;11.754;2023-04-24T22:10:00;6.80;99.90
21184;DHT22;18176;49.502;11.754;2023-04-24T22:14:01;6.60;99.90
21184;DHT22;18176;49.502;11.754;2023-04-24T22:18:03;6.60;99.90
21184;DHT22;18176;49.502;11.754;2023-04-24T22:22:04;6.50;99.90
21184;DHT22;18176;49.502;11.754;2023-04-24T22:26:07;6.50;99.90
21184;DHT22;18176;49.502;11.754;2023-04-24T22:30:08;6.40;99.90
21184;DHT22;18176;49.502;11.754;2023-04-24T22:34:09;6.40;99.90
21184;DHT22;18176;49.502;11.754;2023-04-24T22:38:09;6.30;99.90
21184;DHT22;18176;49.502;11.754;2023-04-24T22:42:13;6.30;99.90
21184;DHT22;18176;49.502;11.754;2023-04-24T22:46:13;6.30;99.90
21184;DHT22;18176;49.502;11.754;2023-04-24T22:50:13;6.40;99.90
21184;DHT22;18176;49.502;11.754;2023-04-24T22:54:14;6.30;99.90
21184;DHT22;18176;49.502;11.754;2023-04-24T22:58:17;6.40;99.90
21184;DHT22;18176;49.502;11.754;2023-04-24T23:02:17;6.30;99.90
21184;DHT22;18176;49.502;11.754;2023-04-24T23:06:18;6.30;99.90
21184;DHT22;18176;49.502;11.754;2023-04-24T23:10:19;6.30;99.90
21184;DHT22;18176;49.502;11.754;2023-04-24T23:14:22;6.30;99.90
21184;DHT22;18176;49.502;11.754;2023-04-24T23:18:23;6.30;99.90
21184;DHT22;18176;49.502;11.754;2023-04-24T23:22:23;6.40;99.90
21184;DHT22;18176;49.502;11.754;2023-04-24T23:26:23;6.50;99.90
21184;DHT22;18176;49.502;11.754;2023-04-24T23:30:26;6.60;99.90
21184;DHT22;18176;49.502;11.754;2023-04-24T23:34:27;6.60;99.90
21184;DHT22;18176;49.502;11.754;2023-04-24T23:38:29;6.70;99.90
21184;DHT22;18176;49.502;11.754;2023-04-24T23:42:45;6.80;99.90
21184;DHT22;18176;49.502;11.754;2023-04-24T23:47:04;6.80;99.90
21184;DHT22;18176;49.502;11.754;2023-04-24T23:51:05;6.80;99.90
21184;DHT22;18176;49.502;11.754;2023-04-24T23:55:06;6.80;99.90
21184;DHT22;18176;49.502;11.754;2023-04-24T23:59:08;6.80;99.90
